N8262S KRYV-KMKE
Flight info
| Callsign | N8262S |
|---|---|
| Flight time | N/A |
| Altitude | 3500 |
| Route | BAE |
| Aircraft | PA28/L-SDGRY/S |
Departure
| Time | 2026-04-19 04:09 |
|---|---|
| Airport | Watertown Municipal Airport (KRYV) |
Arrival
| Time | N/A |
|---|---|
| Airport | General Mitchell International Airport (KMKE) |
| Time | Latitude | Longitude | Altitude | Speed | Heading |
|---|---|---|---|---|---|
| 2026-04-19 03:55 | 43.17078 | -88.72703 | 817 ft | 0 kts | 272° |
| 2026-04-19 04:07 | 43.17083 | -88.72717 | 816 ft | 9 kts | 321° |
| 2026-04-19 04:08 | 43.17201 | -88.72674 | 815 ft | 24 kts | 30° |
| 2026-04-19 04:08 | 43.17214 | -88.72611 | 815 ft | 6 kts | 113° |
| 2026-04-19 04:08 | 43.17118 | -88.72288 | 817 ft | 69 kts | 112° |
| 2026-04-19 04:08 | 43.16898 | -88.71575 | 1042 ft | 86 kts | 113° |
| 2026-04-19 04:09 | 43.16676 | -88.70767 | 1350 ft | 97 kts | 110° |
| 2026-04-19 04:09 | 43.16474 | -88.69841 | 1644 ft | 106 kts | 102° |
| 2026-04-19 04:09 | 43.16288 | -88.68843 | 2017 ft | 109 kts | 97° |
| 2026-04-19 04:09 | 43.16086 | -88.67797 | 2293 ft | 116 kts | 98° |
| 2026-04-19 04:10 | 43.15923 | -88.66690 | 2581 ft | 121 kts | 89° |
| 2026-04-19 04:10 | 43.15832 | -88.65526 | 2873 ft | 125 kts | 87° |
| 2026-04-19 04:10 | 43.15748 | -88.64337 | 3224 ft | 125 kts | 86° |
| 2026-04-19 04:10 | 43.15691 | -88.63079 | 3465 ft | 134 kts | 83° |
| 2026-04-19 04:11 | 43.15632 | -88.61727 | 3612 ft | 150 kts | 89° |
| 2026-04-19 04:11 | 43.15536 | -88.60287 | 3800 ft | 157 kts | 92° |
| 2026-04-19 04:11 | 43.15367 | -88.58801 | 3843 ft | 165 kts | 94° |
| 2026-04-19 04:11 | 43.15175 | -88.57216 | 3715 ft | 173 kts | 94° |
| 2026-04-19 04:12 | 43.14972 | -88.55551 | 3568 ft | 177 kts | 93° |
| 2026-04-19 04:12 | 43.14777 | -88.53926 | 3642 ft | 168 kts | 96° |
| 2026-04-19 04:12 | 43.14506 | -88.52372 | 3608 ft | 172 kts | 100° |
| 2026-04-19 04:12 | 43.14203 | -88.50752 | 3526 ft | 173 kts | 100° |
| 2026-04-19 04:13 | 43.13935 | -88.49170 | 3529 ft | 173 kts | 100° |
| 2026-04-19 04:13 | 43.13641 | -88.47566 | 3426 ft | 165 kts | 100° |
| 2026-04-19 04:13 | 43.13367 | -88.46086 | 3477 ft | 158 kts | 99° |
| 2026-04-19 04:13 | 43.13103 | -88.44674 | 3541 ft | 154 kts | 98° |
| 2026-04-19 04:14 | 43.12874 | -88.43272 | 3602 ft | 154 kts | 99° |
| 2026-04-19 04:14 | 43.12593 | -88.41824 | 3509 ft | 162 kts | 99° |
| 2026-04-19 04:14 | 43.12327 | -88.40321 | 3515 ft | 160 kts | 100° |
| 2026-04-19 04:14 | 43.12074 | -88.38836 | 3510 ft | 159 kts | 97° |
| 2026-04-19 04:15 | 43.11848 | -88.37370 | 3580 ft | 154 kts | 98° |